Kars, Turkey
Current Conditions -  °F | °C
As of 8:50 AM on Saturday 01 Nov 2014 (Local Time) from LTCF Reporting Station
Broken Clouds Broken Clouds  
Wind Chill:   Ceiling: 3500
Heat Index:   Visibility: 6mi
Dew Point:   Wind: 12mph
Humidity: 71%   Direction: 250°WSW
Pressure: 29.88"   Gusts: NA
Location:  40.59°N, 43.07°E
Report Text: LTCF 010550Z 25010KT 9999 BKN035 08/03 Q1012
Loading
Personal Weather Stations






























Interactive Weather Map
Tropical Storm Tracking
New forecast layout! Learn more

10-Day Weather Forecast

Advertisements
Track Severe Weather on mobile